createdAt,value
2023-07-01T00:01:52.903Z,16.03
2023-07-01T00:04:39.810Z,16.05
2023-07-01T00:07:26.844Z,16.07
2023-07-01T00:10:13.424Z,16.08
2023-07-01T00:13:00.424Z,16.10
2023-07-01T00:15:47.090Z,16.11
2023-07-01T00:18:34.423Z,16.14
2023-07-01T00:21:21.226Z,16.16
2023-07-01T00:24:07.515Z,16.19
2023-07-01T00:26:53.937Z,16.18
2023-07-01T00:29:40.628Z,16.15
2023-07-01T00:32:27.521Z,16.14
2023-07-01T00:35:14.624Z,16.12
2023-07-01T00:38:01.385Z,16.13
2023-07-01T00:40:48.727Z,16.14
2023-07-01T00:43:35.606Z,16.13
2023-07-01T00:46:23.231Z,16.15
2023-07-01T00:49:10.094Z,16.11
2023-07-01T00:51:58.146Z,16.09
2023-07-01T00:54:45.657Z,16.10
2023-07-01T00:57:33.931Z,16.10
2023-07-01T01:00:20.620Z,16.11
2023-07-01T01:03:23.005Z,16.10
2023-07-01T01:06:24.884Z,16.05
2023-07-01T01:09:46.054Z,15.98
2023-07-01T01:12:34.713Z,15.93
2023-07-01T01:15:21.686Z,15.96
2023-07-01T01:18:10.984Z,15.97
2023-07-01T01:20:58.600Z,15.96
2023-07-01T01:24:00.073Z,15.95
2023-07-01T01:26:50.377Z,15.96
2023-07-01T01:29:37.084Z,15.97
2023-07-01T01:32:24.283Z,16.00
2023-07-01T01:35:10.916Z,16.01
2023-07-01T01:38:06.646Z,16.02
2023-07-01T01:41:01.763Z,16.00
2023-07-01T01:44:00.052Z,15.98
2023-07-01T01:46:47.663Z,15.95
2023-07-01T01:49:35.669Z,15.91
2023-07-01T01:52:23.746Z,15.87
2023-07-01T01:55:13.197Z,15.85
2023-07-01T01:58:00.698Z,15.87
2023-07-01T02:00:47.948Z,15.85
2023-07-01T02:03:36.638Z,15.87
2023-07-01T02:06:23.416Z,15.87
2023-07-01T02:09:10.127Z,15.91
2023-07-01T02:11:58.517Z,15.92
2023-07-01T02:14:45.897Z,15.90
2023-07-01T02:17:32.243Z,15.89
2023-07-01T02:20:20.116Z,15.86
2023-07-01T02:23:06.958Z,15.82
2023-07-01T02:25:55.193Z,15.83
2023-07-01T02:28:41.496Z,15.84
2023-07-01T02:31:28.480Z,15.82
2023-07-01T02:34:15.803Z,15.75
2023-07-01T02:37:02.492Z,15.67
2023-07-01T02:39:48.982Z,15.61
2023-07-01T02:42:35.497Z,15.60
2023-07-01T02:45:21.958Z,15.60
2023-07-01T02:48:08.815Z,15.59
2023-07-01T02:50:55.404Z,15.54
2023-07-01T02:53:42.480Z,15.47
2023-07-01T02:56:28.995Z,15.54
2023-07-01T02:59:15.940Z,15.57
2023-07-01T03:02:06.340Z,15.53
2023-07-01T03:04:52.736Z,15.67
2023-07-01T03:07:39.881Z,15.71
2023-07-01T03:10:27.051Z,15.76
2023-07-01T03:13:13.389Z,15.81
2023-07-01T03:16:02.226Z,15.85
2023-07-01T03:18:49.078Z,15.89
2023-07-01T03:21:37.572Z,15.94
2023-07-01T03:24:24.138Z,15.98
2023-07-01T03:27:13.879Z,16.00
2023-07-01T03:30:01.382Z,16.00
2023-07-01T03:32:49.238Z,15.97
2023-07-01T03:35:35.842Z,16.02
2023-07-01T03:38:23.200Z,16.04
2023-07-01T03:41:09.838Z,16.09
2023-07-01T03:43:57.514Z,16.15
2023-07-01T03:46:44.087Z,16.21
2023-07-01T03:49:31.511Z,16.23
2023-07-01T03:52:18.156Z,16.25
2023-07-01T03:55:09.108Z,16.25
2023-07-01T03:57:56.045Z,16.28
2023-07-01T04:00:42.426Z,16.33
2023-07-01T04:03:29.192Z,16.38
2023-07-01T04:06:15.793Z,16.38
2023-07-01T04:09:02.116Z,16.40
2023-07-01T04:11:48.891Z,16.43
2023-07-01T04:14:35.609Z,16.44
2023-07-01T04:17:22.176Z,16.53
2023-07-01T04:20:10.899Z,16.64
2023-07-01T04:22:57.774Z,16.68
2023-07-01T04:25:45.475Z,16.77
2023-07-01T04:28:31.843Z,16.87
2023-07-01T04:31:18.281Z,16.91
2023-07-01T04:34:04.978Z,16.96
2023-07-01T04:36:51.467Z,17.07
2023-07-01T04:39:37.904Z,17.21
2023-07-01T04:42:24.568Z,17.34
2023-07-01T04:45:11.102Z,17.40
2023-07-01T04:47:57.605Z,17.47
2023-07-01T04:50:44.560Z,17.44
2023-07-01T04:53:31.239Z,17.57
2023-07-01T04:56:18.170Z,17.66
2023-07-01T04:59:04.883Z,17.62
2023-07-01T05:01:51.746Z,17.69
2023-07-01T05:04:39.256Z,17.77
2023-07-01T05:07:26.224Z,17.88
2023-07-01T05:10:12.995Z,17.92
2023-07-01T05:12:59.280Z,17.95
2023-07-01T05:15:45.968Z,18.01
2023-07-01T05:18:32.255Z,18.06
2023-07-01T05:21:19.040Z,18.21
2023-07-01T05:24:05.699Z,18.31
2023-07-01T05:26:54.003Z,18.40
2023-07-01T05:29:40.324Z,18.50
2023-07-01T05:32:27.364Z,18.60
2023-07-01T05:35:16.307Z,18.68
2023-07-01T05:38:14.081Z,18.74
2023-07-01T05:41:00.827Z,18.81
2023-07-01T05:43:47.343Z,18.84
2023-07-01T05:46:34.372Z,18.85
2023-07-01T05:49:21.249Z,18.77
2023-07-01T05:52:08.068Z,18.77
2023-07-01T05:54:54.527Z,18.84
2023-07-01T05:57:41.226Z,18.96
2023-07-01T06:00:27.741Z,19.12
2023-07-01T06:03:15.732Z,19.29
2023-07-01T06:06:02.788Z,19.33
2023-07-01T06:08:49.432Z,19.41
2023-07-01T06:11:38.247Z,19.41
2023-07-01T06:14:24.695Z,19.48
2023-07-01T06:17:12.680Z,19.54
2023-07-01T06:19:59.350Z,19.66
2023-07-01T06:22:45.844Z,19.75
2023-07-01T06:25:33.428Z,19.79
2023-07-01T06:28:22.724Z,19.90
2023-07-01T06:31:11.498Z,20.02
2023-07-01T06:33:58.251Z,20.14
2023-07-01T06:36:45.162Z,20.24
2023-07-01T06:39:31.994Z,20.30
2023-07-01T06:42:19.518Z,20.29
2023-07-01T06:45:06.819Z,20.34
2023-07-01T06:47:53.748Z,20.35
2023-07-01T06:50:40.106Z,20.21
2023-07-01T06:53:26.657Z,20.10
2023-07-01T06:56:13.517Z,20.06
2023-07-01T06:58:59.900Z,20.17
2023-07-01T07:01:46.473Z,20.28
2023-07-01T07:04:33.430Z,20.34
2023-07-01T07:07:20.260Z,20.41
2023-07-01T07:10:07.598Z,20.59
2023-07-01T07:12:54.238Z,20.74
2023-07-01T07:15:41.785Z,20.89
2023-07-01T07:18:29.564Z,20.92
2023-07-01T07:21:16.587Z,20.95
2023-07-01T07:24:03.400Z,21.07
2023-07-01T07:26:59.359Z,21.20
2023-07-01T07:29:46.061Z,21.36
2023-07-01T07:32:32.867Z,21.42
2023-07-01T07:35:20.288Z,21.47
2023-07-01T07:38:06.764Z,21.60
2023-07-01T07:40:53.050Z,21.70
2023-07-01T07:43:39.611Z,21.76
2023-07-01T07:46:26.170Z,21.77
2023-07-01T07:49:15.037Z,21.75
2023-07-01T07:52:02.774Z,21.81
2023-07-01T07:54:50.372Z,21.91
2023-07-01T07:57:37.885Z,21.96
2023-07-01T08:00:31.761Z,22.04
2023-07-01T08:03:18.534Z,22.10
2023-07-01T08:06:05.303Z,22.06
2023-07-01T08:08:51.892Z,22.10
2023-07-01T08:11:38.647Z,22.06
2023-07-01T08:14:26.628Z,22.12
2023-07-01T08:17:13.573Z,22.22
2023-07-01T08:20:00.183Z,22.24
2023-07-01T08:22:46.877Z,22.37
2023-07-01T08:25:33.740Z,22.47
2023-07-01T08:28:20.221Z,22.61
2023-07-01T08:31:06.931Z,22.66
2023-07-01T08:33:53.676Z,22.73
2023-07-01T08:36:40.361Z,22.81
2023-07-01T08:39:27.296Z,22.91
2023-07-01T08:42:19.906Z,23.01
2023-07-01T08:45:08.434Z,23.18
2023-07-01T08:47:59.157Z,23.22
2023-07-01T08:50:57.384Z,23.30
2023-07-01T08:53:44.444Z,23.32
2023-07-01T08:56:31.517Z,23.31
2023-07-01T08:59:19.436Z,23.34
2023-07-01T09:02:07.547Z,23.48
2023-07-01T09:04:54.108Z,23.60
2023-07-01T09:07:42.682Z,23.75
2023-07-01T09:10:29.286Z,23.92
2023-07-01T09:13:16.987Z,24.01
2023-07-01T09:16:03.739Z,24.10
2023-07-01T09:19:04.491Z,24.06
2023-07-01T09:21:51.446Z,24.02
2023-07-01T09:24:40.902Z,24.02
2023-07-01T09:27:50.542Z,24.18
2023-07-01T09:30:37.848Z,24.30
2023-07-01T09:33:24.617Z,24.38
2023-07-01T09:36:24.565Z,24.41
2023-07-01T09:39:13.646Z,24.31
2023-07-01T09:42:05.896Z,24.30
2023-07-01T09:45:06.165Z,24.34
2023-07-01T09:47:56.347Z,24.46
2023-07-01T09:50:43.332Z,24.62
2023-07-01T09:53:36.033Z,24.55
2023-07-01T09:56:23.347Z,24.37
2023-07-01T09:59:11.656Z,24.28
2023-07-01T10:02:02.961Z,24.39
2023-07-01T10:04:53.591Z,24.53
2023-07-01T10:07:44.827Z,24.60
2023-07-01T10:10:31.862Z,24.59
2023-07-01T10:13:18.486Z,24.70
2023-07-01T10:16:08.022Z,24.79
2023-07-01T10:18:54.786Z,24.89
2023-07-01T10:21:41.857Z,24.99
2023-07-01T10:24:40.740Z,25.12
2023-07-01T10:27:46.126Z,25.16
2023-07-01T10:30:55.296Z,25.15
2023-07-01T10:33:42.109Z,25.24
2023-07-01T10:36:28.681Z,25.28
2023-07-01T10:39:33.837Z,25.30
2023-07-01T10:42:34.438Z,25.39
2023-07-01T10:45:27.039Z,25.49
2023-07-01T10:48:17.529Z,25.65
2023-07-01T10:51:08.767Z,25.77
2023-07-01T10:54:02.213Z,25.81
2023-07-01T10:57:13.654Z,25.89
2023-07-01T11:00:49.349Z,26.04
2023-07-01T11:03:39.129Z,25.97
2023-07-01T11:06:25.939Z,25.98
2023-07-01T11:09:14.225Z,25.88
2023-07-01T11:12:04.536Z,26.04
2023-07-01T11:14:56.593Z,26.27
2023-07-01T11:17:54.147Z,26.36
2023-07-01T11:20:49.554Z,26.36
2023-07-01T11:23:36.058Z,26.54
2023-07-01T11:26:29.976Z,26.58
2023-07-01T11:29:18.910Z,26.84
2023-07-01T11:32:08.219Z,27.02
2023-07-01T11:34:58.589Z,27.01
2023-07-01T11:37:45.413Z,26.86
2023-07-01T11:40:41.476Z,26.85
2023-07-01T11:43:28.640Z,26.99
2023-07-01T11:46:15.320Z,27.03
2023-07-01T11:49:16.554Z,27.08
2023-07-01T11:52:05.576Z,27.21
2023-07-01T11:54:56.808Z,27.18
2023-07-01T11:57:44.332Z,27.03
2023-07-01T12:00:35.325Z,27.13
2023-07-01T12:03:25.673Z,27.19
2023-07-01T12:06:24.174Z,27.24
2023-07-01T12:09:29.854Z,27.20
2023-07-01T12:12:19.648Z,26.96
2023-07-01T12:15:12.451Z,26.81
2023-07-01T12:18:28.580Z,27.02
2023-07-01T12:21:18.913Z,27.93
2023-07-01T12:24:20.796Z,28.86
2023-07-01T12:27:08.256Z,29.77
2023-07-01T12:29:55.636Z,30.38
2023-07-01T12:32:42.244Z,30.70
2023-07-01T12:35:28.959Z,30.98
2023-07-01T12:38:15.895Z,30.26
2023-07-01T12:41:04.062Z,29.82
2023-07-01T12:43:50.534Z,30.95
2023-07-01T12:46:37.440Z,31.71
2023-07-01T12:49:24.090Z,32.19
2023-07-01T12:52:10.518Z,32.95
2023-07-01T12:54:56.874Z,33.46
2023-07-01T12:57:43.846Z,33.90
2023-07-01T13:00:30.551Z,34.51
2023-07-01T13:03:16.909Z,35.30
2023-07-01T13:06:31.892Z,35.65
2023-07-01T13:09:39.543Z,36.22
2023-07-01T13:12:28.900Z,36.82
2023-07-01T13:15:52.662Z,37.28
2023-07-01T13:18:42.712Z,36.86
2023-07-01T13:21:29.575Z,34.94
2023-07-01T13:24:17.343Z,33.48
2023-07-01T13:27:08.391Z,32.56
2023-07-01T13:29:54.929Z,31.65
2023-07-01T13:32:42.281Z,30.92
2023-07-01T13:35:36.016Z,30.57
2023-07-01T13:38:23.803Z,30.11
2023-07-01T13:41:11.118Z,30.25
2023-07-01T13:44:04.178Z,31.03
2023-07-01T13:46:52.937Z,31.43
2023-07-01T13:49:40.486Z,32.72
2023-07-01T13:52:27.794Z,34.29
2023-07-01T13:55:18.870Z,35.45
2023-07-01T13:58:06.516Z,36.62
2023-07-01T14:00:55.129Z,36.73
2023-07-01T14:03:54.728Z,35.30
2023-07-01T14:06:42.202Z,35.98
2023-07-01T14:09:31.013Z,36.89
2023-07-01T14:12:17.999Z,36.15
2023-07-01T14:15:07.987Z,37.25
2023-07-01T14:17:54.929Z,37.98
2023-07-01T14:21:03.644Z,38.96
2023-07-01T14:23:56.477Z,37.49
2023-07-01T14:26:47.201Z,38.03
2023-07-01T14:29:41.988Z,39.16
2023-07-01T14:32:28.850Z,39.56
2023-07-01T14:35:20.683Z,39.19
2023-07-01T14:38:08.425Z,39.49
2023-07-01T14:40:55.294Z,38.63
2023-07-01T14:43:42.465Z,39.16
2023-07-01T14:46:40.833Z,39.99
2023-07-01T14:49:27.769Z,40.46
2023-07-01T14:52:14.778Z,40.71
2023-07-01T14:55:02.917Z,41.02
2023-07-01T14:57:49.883Z,41.04
2023-07-01T15:00:36.756Z,40.85
2023-07-01T15:03:23.536Z,40.91
2023-07-01T15:06:12.372Z,40.10
2023-07-01T15:09:01.412Z,39.30
2023-07-01T15:11:48.272Z,39.30
2023-07-01T15:14:34.800Z,38.36
2023-07-01T15:17:22.600Z,36.43
2023-07-01T15:20:09.881Z,34.98
2023-07-01T15:22:56.705Z,35.12
2023-07-01T15:25:43.902Z,36.44
2023-07-01T15:28:32.068Z,36.46
2023-07-01T15:31:18.710Z,35.24
2023-07-01T15:34:05.128Z,34.54
2023-07-01T15:36:52.089Z,33.98
2023-07-01T15:39:38.782Z,33.41
2023-07-01T15:42:26.304Z,32.77
2023-07-01T15:45:13.484Z,32.20
2023-07-01T15:48:00.621Z,31.83
2023-07-01T15:50:47.440Z,31.59
2023-07-01T15:53:34.844Z,31.22
2023-07-01T15:56:21.671Z,31.61
2023-07-01T15:59:08.984Z,31.84
2023-07-01T16:01:56.658Z,32.91
2023-07-01T16:04:44.803Z,34.50
2023-07-01T16:07:37.484Z,35.15
2023-07-01T16:10:25.783Z,35.08
2023-07-01T16:13:37.879Z,34.64
2023-07-01T16:16:42.902Z,33.04
2023-07-01T16:19:40.771Z,32.05
2023-07-01T16:22:27.891Z,31.18
2023-07-01T16:25:14.780Z,30.60
2023-07-01T16:28:01.448Z,30.02
2023-07-01T16:30:48.697Z,29.37
2023-07-01T16:33:37.155Z,28.84
2023-07-01T16:36:31.308Z,28.41
2023-07-01T16:39:18.980Z,28.05
2023-07-01T16:42:05.970Z,27.77
2023-07-01T16:44:54.876Z,27.50
2023-07-01T16:47:41.245Z,27.29
2023-07-01T16:50:55.223Z,27.07
2023-07-01T16:53:45.102Z,26.92
2023-07-01T16:56:45.874Z,26.81
2023-07-01T16:59:39.750Z,26.61
2023-07-01T17:02:32.196Z,26.31
2023-07-01T17:05:27.862Z,26.01
2023-07-01T17:08:32.532Z,25.78
2023-07-01T17:11:46.861Z,25.60
2023-07-01T17:14:46.478Z,25.43
2023-07-01T17:17:43.148Z,25.34
2023-07-01T17:20:30.164Z,25.22
2023-07-01T17:23:16.745Z,25.08
2023-07-01T17:26:03.458Z,24.89
2023-07-01T17:28:50.176Z,24.76
2023-07-01T17:31:36.899Z,24.66
2023-07-01T17:34:33.817Z,24.54
2023-07-01T17:37:20.104Z,24.40
2023-07-01T17:40:07.641Z,24.25
2023-07-01T17:42:54.638Z,24.24
2023-07-01T17:45:41.390Z,24.13
2023-07-01T17:48:28.172Z,24.02
2023-07-01T17:51:14.540Z,23.95
2023-07-01T17:54:01.072Z,23.89
2023-07-01T17:56:49.365Z,23.82
2023-07-01T17:59:36.076Z,23.79
2023-07-01T18:02:23.202Z,23.74
2023-07-01T18:05:10.719Z,23.64
2023-07-01T18:07:57.855Z,23.60
2023-07-01T18:10:44.503Z,23.55
2023-07-01T18:13:31.368Z,23.52
2023-07-01T18:16:18.027Z,23.46
2023-07-01T18:19:05.034Z,23.39
2023-07-01T18:21:52.232Z,23.33
2023-07-01T18:24:39.075Z,23.27
2023-07-01T18:27:28.485Z,23.23
2023-07-01T18:30:15.686Z,23.18
2023-07-01T18:33:02.673Z,23.12
2023-07-01T18:35:51.196Z,23.07
2023-07-01T18:38:39.801Z,23.02
2023-07-01T18:41:28.920Z,22.97
2023-07-01T18:44:15.733Z,22.93
2023-07-01T18:47:02.240Z,22.88
2023-07-01T18:49:48.825Z,22.85
2023-07-01T18:52:35.635Z,22.80
2023-07-01T18:55:22.383Z,22.76
2023-07-01T18:58:09.822Z,22.71
2023-07-01T19:00:56.581Z,22.64
2023-07-01T19:03:45.091Z,22.60
2023-07-01T19:06:31.897Z,22.57
2023-07-01T19:09:18.636Z,22.52
2023-07-01T19:12:05.883Z,22.48
2023-07-01T19:14:52.124Z,22.45
2023-07-01T19:17:38.697Z,22.43
2023-07-01T19:20:52.135Z,22.40
2023-07-01T19:23:40.029Z,22.35
2023-07-01T19:26:27.204Z,22.28
2023-07-01T19:29:14.418Z,22.29
2023-07-01T19:32:03.516Z,22.25
2023-07-01T19:34:49.981Z,22.22
2023-07-01T19:37:36.300Z,22.19
2023-07-01T19:40:23.411Z,22.18
2023-07-01T19:43:10.900Z,22.15
2023-07-01T19:45:57.548Z,22.11
2023-07-01T19:48:51.521Z,22.09
2023-07-01T19:51:39.943Z,22.05
2023-07-01T19:54:27.350Z,22.02
2023-07-01T19:57:13.942Z,21.96
2023-07-01T20:00:00.832Z,21.92
2023-07-01T20:02:48.841Z,21.88
2023-07-01T20:05:47.700Z,21.79
2023-07-01T20:08:34.642Z,21.72
2023-07-01T20:11:22.190Z,21.65
2023-07-01T20:14:09.129Z,21.57
2023-07-01T20:16:56.086Z,21.52
2023-07-01T20:19:42.726Z,21.48
2023-07-01T20:22:29.456Z,21.46
2023-07-01T20:25:16.291Z,21.45
2023-07-01T20:28:02.821Z,21.42
2023-07-01T20:30:49.660Z,21.40
2023-07-01T20:33:37.078Z,21.36
2023-07-01T20:36:23.788Z,21.35
2023-07-01T20:39:11.401Z,21.32
2023-07-01T20:42:07.397Z,21.31
2023-07-01T20:44:55.209Z,21.29
2023-07-01T20:47:43.840Z,21.26
2023-07-01T20:50:30.748Z,21.24
2023-07-01T20:53:17.333Z,21.21
2023-07-01T20:56:04.074Z,21.18
2023-07-01T20:58:50.435Z,21.16
2023-07-01T21:01:39.584Z,21.15
2023-07-01T21:04:26.263Z,21.15
2023-07-01T21:07:13.097Z,21.10
2023-07-01T21:10:00.118Z,21.12
2023-07-01T21:12:51.238Z,21.12
2023-07-01T21:15:38.556Z,21.12
2023-07-01T21:18:25.057Z,21.13
2023-07-01T21:21:11.696Z,21.12
2023-07-01T21:23:58.237Z,21.09
2023-07-01T21:26:45.591Z,21.11
2023-07-01T21:29:31.766Z,21.10
2023-07-01T21:32:18.285Z,21.08
2023-07-01T21:35:07.055Z,21.06
2023-07-01T21:37:53.386Z,21.03
2023-07-01T21:40:45.014Z,21.00
2023-07-01T21:43:32.837Z,20.98
2023-07-01T21:46:19.518Z,20.96
2023-07-01T21:49:08.202Z,20.93
2023-07-01T21:51:54.828Z,20.90
2023-07-01T21:54:41.470Z,20.88
2023-07-01T21:57:27.709Z,20.87
2023-07-01T22:00:14.863Z,20.83
2023-07-01T22:03:01.372Z,20.81
2023-07-01T22:05:51.720Z,20.77
2023-07-01T22:08:38.567Z,20.75
2023-07-01T22:11:25.596Z,20.73
2023-07-01T22:14:13.312Z,20.72
2023-07-01T22:17:00.072Z,20.72
2023-07-01T22:19:46.255Z,20.69
2023-07-01T22:22:32.633Z,20.73
2023-07-01T22:25:20.308Z,20.74
2023-07-01T22:28:06.913Z,20.75
2023-07-01T22:30:53.477Z,20.75
2023-07-01T22:33:39.972Z,20.74
2023-07-01T22:36:27.065Z,20.73
2023-07-01T22:39:13.839Z,20.71
2023-07-01T22:42:00.202Z,20.70
2023-07-01T22:44:46.376Z,20.65
2023-07-01T22:47:32.816Z,20.67
2023-07-01T22:50:21.547Z,20.60
2023-07-01T22:53:08.447Z,20.62
2023-07-01T22:55:54.669Z,20.61
2023-07-01T22:58:40.965Z,20.58
2023-07-01T23:01:27.387Z,20.57
2023-07-01T23:04:14.323Z,20.55
2023-07-01T23:07:01.179Z,20.51
2023-07-01T23:09:47.793Z,20.49
2023-07-01T23:12:35.549Z,20.47
2023-07-01T23:15:22.476Z,20.45
2023-07-01T23:18:10.331Z,20.44
2023-07-01T23:20:57.227Z,20.42
2023-07-01T23:23:43.662Z,20.40
2023-07-01T23:26:30.133Z,20.36
2023-07-01T23:29:16.354Z,20.32
2023-07-01T23:32:02.911Z,20.31
2023-07-01T23:34:51.634Z,20.30
2023-07-01T23:37:38.404Z,20.29
2023-07-01T23:40:24.960Z,20.27
2023-07-01T23:43:11.616Z,20.26
2023-07-01T23:45:58.144Z,20.24
2023-07-01T23:48:44.407Z,20.21
2023-07-01T23:51:30.966Z,20.20
2023-07-01T23:54:17.544Z,20.19
2023-07-01T23:57:04.190Z,20.16
2023-07-01T23:59:50.880Z,20.14
